sensor_id;sensor_type;location;lat;lon;timestamp;pressure;altitude;pressure_sealevel;temperature;humidity
43683;BME280;29285;52.128;21.060;2023-12-29T00:00:30;100031.76;;;4.43;100.00
43683;BME280;29285;52.128;21.060;2023-12-29T00:05:52;100027.09;;;4.39;100.00
43683;BME280;29285;52.128;21.060;2023-12-29T00:10:55;100021.25;;;4.36;100.00
43683;BME280;29285;52.128;21.060;2023-12-29T00:15:57;100019.52;;;4.34;100.00
43683;BME280;29285;52.128;21.060;2023-12-29T00:20:59;100018.66;;;4.33;100.00
43683;BME280;29285;52.128;21.060;2023-12-29T00:26:01;100022.26;;;4.31;100.00
43683;BME280;29285;52.128;21.060;2023-12-29T00:31:03;100015.02;;;4.29;100.00
43683;BME280;29285;52.128;21.060;2023-12-29T00:36:05;100011.08;;;4.26;100.00
43683;BME280;29285;52.128;21.060;2023-12-29T00:41:07;100015.52;;;4.25;100.00
43683;BME280;29285;52.128;21.060;2023-12-29T00:46:09;100012.41;;;4.19;100.00
43683;BME280;29285;52.128;21.060;2023-12-29T00:51:11;100011.52;;;4.13;100.00
43683;BME280;29285;52.128;21.060;2023-12-29T00:56:13;100007.54;;;4.06;100.00
43683;BME280;29285;52.128;21.060;2023-12-29T01:01:14;100006.64;;;4.01;100.00
43683;BME280;29285;52.128;21.060;2023-12-29T01:06:16;100007.30;;;3.96;100.00
43683;BME280;29285;52.128;21.060;2023-12-29T01:11:18;100008.83;;;3.92;100.00
43683;BME280;29285;52.128;21.060;2023-12-29T01:16:20;100006.05;;;3.89;100.00
43683;BME280;29285;52.128;21.060;2023-12-29T01:21:22;100006.20;;;3.84;100.00
43683;BME280;29285;52.128;21.060;2023-12-29T01:26:23;99996.58;;;3.80;100.00
43683;BME280;29285;52.128;21.060;2023-12-29T01:31:29;99992.61;;;3.77;100.00
43683;BME280;29285;52.128;21.060;2023-12-29T01:36:34;99976.61;;;3.73;100.00
43683;BME280;29285;52.128;21.060;2023-12-29T01:41:36;99976.76;;;3.69;100.00
43683;BME280;29285;52.128;21.060;2023-12-29T01:46:38;99975.89;;;3.67;100.00
43683;BME280;29285;52.128;21.060;2023-12-29T01:51:40;99970.90;;;3.65;100.00
43683;BME280;29285;52.128;21.060;2023-12-29T01:56:44;99957.67;;;3.63;100.00
43683;BME280;29285;52.128;21.060;2023-12-29T02:01:46;99948.22;;;3.60;100.00
43683;BME280;29285;52.128;21.060;2023-12-29T02:06:48;99938.95;;;3.58;100.00
43683;BME280;29285;52.128;21.060;2023-12-29T02:11:50;99926.58;;;3.57;100.00
43683;BME280;29285;52.128;21.060;2023-12-29T02:17:19;99922.83;;;3.59;100.00
43683;BME280;29285;52.128;21.060;2023-12-29T02:22:23;99919.23;;;3.58;100.00
43683;BME280;29285;52.128;21.060;2023-12-29T02:32:27;99910.80;;;3.55;100.00
43683;BME280;29285;52.128;21.060;2023-12-29T02:37:30;99907.02;;;3.52;100.00
43683;BME280;29285;52.128;21.060;2023-12-29T02:42:33;99900.14;;;3.50;100.00
43683;BME280;29285;52.128;21.060;2023-12-29T02:47:35;99899.77;;;3.47;100.00
43683;BME280;29285;52.128;21.060;2023-12-29T02:52:37;99898.02;;;3.40;100.00
43683;BME280;29285;52.128;21.060;2023-12-29T02:57:39;99894.05;;;3.36;100.00
43683;BME280;29285;52.128;21.060;2023-12-29T03:02:41;99896.77;;;3.32;100.00
43683;BME280;29285;52.128;21.060;2023-12-29T03:07:44;99900.32;;;3.26;100.00
43683;BME280;29285;52.128;21.060;2023-12-29T03:12:46;99898.74;;;3.22;100.00
43683;BME280;29285;52.128;21.060;2023-12-29T03:17:48;99894.76;;;3.15;100.00
43683;BME280;29285;52.128;21.060;2023-12-29T03:22:50;99892.29;;;3.06;100.00
43683;BME280;29285;52.128;21.060;2023-12-29T03:27:51;99892.77;;;3.01;100.00
43683;BME280;29285;52.128;21.060;2023-12-29T03:32:53;99887.79;;;2.99;100.00
43683;BME280;29285;52.128;21.060;2023-12-29T03:37:55;99889.12;;;2.94;100.00
43683;BME280;29285;52.128;21.060;2023-12-29T03:42:57;99888.59;;;2.92;100.00
43683;BME280;29285;52.128;21.060;2023-12-29T03:47:58;99873.84;;;2.92;100.00
43683;BME280;29285;52.128;21.060;2023-12-29T03:53:00;99871.08;;;2.89;100.00
43683;BME280;29285;52.128;21.060;2023-12-29T03:58:02;99868.15;;;2.87;100.00
43683;BME280;29285;52.128;21.060;2023-12-29T04:03:04;99872.10;;;2.87;100.00
43683;BME280;29285;52.128;21.060;2023-12-29T04:08:06;99863.17;;;2.85;100.00
43683;BME280;29285;52.128;21.060;2023-12-29T04:13:08;99862.48;;;2.86;100.00
43683;BME280;29285;52.128;21.060;2023-12-29T04:18:09;99854.61;;;2.87;100.00
43683;BME280;29285;52.128;21.060;2023-12-29T04:23:11;99852.73;;;2.87;100.00
43683;BME280;29285;52.128;21.060;2023-12-29T04:28:13;99851.36;;;2.87;100.00
43683;BME280;29285;52.128;21.060;2023-12-29T04:33:15;99849.66;;;2.88;100.00
43683;BME280;29285;52.128;21.060;2023-12-29T04:38:17;99847.79;;;2.89;100.00
43683;BME280;29285;52.128;21.060;2023-12-29T04:43:21;99844.71;;;2.91;100.00
43683;BME280;29285;52.128;21.060;2023-12-29T04:48:22;99844.36;;;2.90;100.00
43683;BME280;29285;52.128;21.060;2023-12-29T04:53:24;99847.11;;;2.91;100.00
43683;BME280;29285;52.128;21.060;2023-12-29T04:58:26;99845.23;;;2.91;100.00
43683;BME280;29285;52.128;21.060;2023-12-29T05:03:27;99844.58;;;2.95;100.00
43683;BME280;29285;52.128;21.060;2023-12-29T05:08:29;99843.41;;;3.01;100.00
43683;BME280;29285;52.128;21.060;2023-12-29T05:13:30;99844.49;;;3.08;100.00
43683;BME280;29285;52.128;21.060;2023-12-29T05:18:32;99834.23;;;3.15;100.00
43683;BME280;29285;52.128;21.060;2023-12-29T05:23:34;99832.39;;;3.22;100.00
43683;BME280;29285;52.128;21.060;2023-12-29T05:28:37;99830.92;;;3.31;100.00
43683;BME280;29285;52.128;21.060;2023-12-29T05:33:39;99831.64;;;3.39;100.00
43683;BME280;29285;52.128;21.060;2023-12-29T05:38:45;99827.57;;;3.48;100.00
43683;BME280;29285;52.128;21.060;2023-12-29T05:43:48;99831.20;;;3.55;100.00
43683;BME280;29285;52.128;21.060;2023-12-29T05:48:49;99831.39;;;3.60;100.00
43683;BME280;29285;52.128;21.060;2023-12-29T05:53:53;99829.36;;;3.65;100.00
43683;BME280;29285;52.128;21.060;2023-12-29T05:58:55;99832.81;;;3.71;100.00
43683;BME280;29285;52.128;21.060;2023-12-29T06:03:57;99831.64;;;3.77;100.00
43683;BME280;29285;52.128;21.060;2023-12-29T06:08:58;99820.67;;;3.81;100.00
43683;BME280;29285;52.128;21.060;2023-12-29T06:14:00;99818.79;;;3.85;100.00
43683;BME280;29285;52.128;21.060;2023-12-29T06:19:02;99811.08;;;3.89;100.00
43683;BME280;29285;52.128;21.060;2023-12-29T06:24:04;99805.95;;;3.91;100.00
43683;BME280;29285;52.128;21.060;2023-12-29T06:29:06;99810.75;;;3.96;100.00
43683;BME280;29285;52.128;21.060;2023-12-29T06:34:08;99802.52;;;3.98;100.00
43683;BME280;29285;52.128;21.060;2023-12-29T06:39:09;99803.55;;;4.00;100.00
43683;BME280;29285;52.128;21.060;2023-12-29T06:44:12;99794.80;;;4.01;100.00
43683;BME280;29285;52.128;21.060;2023-12-29T06:49:14;99795.84;;;4.02;100.00
43683;BME280;29285;52.128;21.060;2023-12-29T06:54:15;99795.33;;;4.03;100.00
43683;BME280;29285;52.128;21.060;2023-12-29T06:59:17;99795.16;;;4.05;100.00
43683;BME280;29285;52.128;21.060;2023-12-29T07:04:21;99793.11;;;4.06;100.00
43683;BME280;29285;52.128;21.060;2023-12-29T07:09:22;99790.70;;;4.07;100.00
43683;BME280;29285;52.128;21.060;2023-12-29T07:14:24;99797.05;;;4.08;100.00
43683;BME280;29285;52.128;21.060;2023-12-29T07:19:26;99790.70;;;4.07;100.00
43683;BME280;29285;52.128;21.060;2023-12-29T07:24:32;99785.54;;;4.07;100.00
43683;BME280;29285;52.128;21.060;2023-12-29T07:29:33;99773.70;;;4.07;100.00
43683;BME280;29285;52.128;21.060;2023-12-29T07:34:35;99778.33;;;4.08;100.00
43683;BME280;29285;52.128;21.060;2023-12-29T07:39:37;99771.66;;;4.13;100.00
43683;BME280;29285;52.128;21.060;2023-12-29T07:44:39;99768.74;;;4.17;100.00
43683;BME280;29285;52.128;21.060;2023-12-29T07:49:41;99763.43;;;4.22;100.00
43683;BME280;29285;52.128;21.060;2023-12-29T07:54:44;99763.26;;;4.29;100.00
43683;BME280;29285;52.128;21.060;2023-12-29T07:59:45;99758.79;;;4.36;100.00
43683;BME280;29285;52.128;21.060;2023-12-29T08:04:47;99749.51;;;4.44;100.00
43683;BME280;29285;52.128;21.060;2023-12-29T08:09:50;99748.83;;;4.50;100.00
43683;BME280;29285;52.128;21.060;2023-12-29T08:14:51;99748.48;;;4.54;100.00
43683;BME280;29285;52.128;21.060;2023-12-29T08:19:53;99750.38;;;4.59;100.00
43683;BME280;29285;52.128;21.060;2023-12-29T08:24:55;99742.12;;;4.59;100.00
43683;BME280;29285;52.128;21.060;2023-12-29T08:29:56;99745.39;;;4.61;100.00
43683;BME280;29285;52.128;21.060;2023-12-29T08:34:58;99745.38;;;4.67;100.00
43683;BME280;29285;52.128;21.060;2023-12-29T08:40:00;99733.16;;;4.75;100.00
43683;BME280;29285;52.128;21.060;2023-12-29T08:45:02;99733.31;;;4.85;100.00
43683;BME280;29285;52.128;21.060;2023-12-29T08:50:05;99739.83;;;4.94;100.00
43683;BME280;29285;52.128;21.060;2023-12-29T08:55:07;99742.55;;;5.03;100.00
43683;BME280;29285;52.128;21.060;2023-12-29T09:00:09;99743.55;;;5.12;100.00
43683;BME280;29285;52.128;21.060;2023-12-29T09:05:11;99743.19;;;5.23;100.00
43683;BME280;29285;52.128;21.060;2023-12-29T09:10:13;99737.30;;;5.31;100.00
43683;BME280;29285;52.128;21.060;2023-12-29T09:15:16;99738.31;;;5.38;100.00
43683;BME280;29285;52.128;21.060;2023-12-29T09:20:18;99737.60;;;5.43;100.00
43683;BME280;29285;52.128;21.060;2023-12-29T09:25:20;99733.94;;;5.53;100.00
43683;BME280;29285;52.128;21.060;2023-12-29T09:30:22;99726.83;;;5.63;100.00
43683;BME280;29285;52.128;21.060;2023-12-29T09:35:24;99721.29;;;5.70;100.00
43683;BME280;29285;52.128;21.060;2023-12-29T09:40:26;99721.08;;;5.77;100.00
43683;BME280;29285;52.128;21.060;2023-12-29T09:45:28;99719.47;;;5.86;100.00
43683;BME280;29285;52.128;21.060;2023-12-29T09:50:30;99717.86;;;5.93;100.00
43683;BME280;29285;52.128;21.060;2023-12-29T09:55:34;99716.44;;;6.01;100.00
43683;BME280;29285;52.128;21.060;2023-12-29T10:00:36;99716.95;;;6.07;100.00
43683;BME280;29285;52.128;21.060;2023-12-29T10:05:38;99722.20;;;6.17;100.00
43683;BME280;29285;52.128;21.060;2023-12-29T10:10:42;99723.66;;;6.31;100.00
43683;BME280;29285;52.128;21.060;2023-12-29T10:21:16;99703.90;;;6.62;100.00
43683;BME280;29285;52.128;21.060;2023-12-29T10:26:22;99706.45;;;6.83;100.00
43683;BME280;29285;52.128;21.060;2023-12-29T10:31:24;99699.38;;;6.99;100.00
43683;BME280;29285;52.128;21.060;2023-12-29T10:36:25;99685.54;;;7.17;100.00
43683;BME280;29285;52.128;21.060;2023-12-29T10:41:27;99679.95;;;7.35;100.00
43683;BME280;29285;52.128;21.060;2023-12-29T10:46:29;99680.30;;;7.47;100.00
43683;BME280;29285;52.128;21.060;2023-12-29T10:51:31;99677.05;;;7.58;100.00
43683;BME280;29285;52.128;21.060;2023-12-29T10:56:33;99680.90;;;7.67;100.00
43683;BME280;29285;52.128;21.060;2023-12-29T11:01:35;99680.20;;;7.80;100.00
43683;BME280;29285;52.128;21.060;2023-12-29T11:06:42;99676.41;;;8.01;100.00
43683;BME280;29285;52.128;21.060;2023-12-29T11:11:46;99670.17;;;8.54;100.00
43683;BME280;29285;52.128;21.060;2023-12-29T11:16:49;99667.10;;;8.63;100.00
43683;BME280;29285;52.128;21.060;2023-12-29T11:21:53;99665.37;;;8.52;100.00
43683;BME280;29285;52.128;21.060;2023-12-29T11:26:55;99666.46;;;8.47;100.00
43683;BME280;29285;52.128;21.060;2023-12-29T11:31:58;99652.36;;;8.44;100.00
43683;BME280;29285;52.128;21.060;2023-12-29T11:42:35;99636.41;;;8.46;100.00
43683;BME280;29285;52.128;21.060;2023-12-29T11:47:39;99631.25;;;8.45;100.00
43683;BME280;29285;52.128;21.060;2023-12-29T11:52:42;99625.39;;;8.45;100.00
43683;BME280;29285;52.128;21.060;2023-12-29T11:57:45;99617.61;;;8.45;100.00
43683;BME280;29285;52.128;21.060;2023-12-29T12:02:47;99611.23;;;8.44;100.00
43683;BME280;29285;52.128;21.060;2023-12-29T12:07:57;99607.04;;;8.45;100.00
43683;BME280;29285;52.128;21.060;2023-12-29T12:13:00;99603.20;;;8.48;100.00
43683;BME280;29285;52.128;21.060;2023-12-29T12:18:03;99597.96;;;8.50;100.00
43683;BME280;29285;52.128;21.060;2023-12-29T12:23:20;99607.45;;;8.53;100.00
43683;BME280;29285;52.128;21.060;2023-12-29T12:28:21;99609.52;;;8.53;100.00
43683;BME280;29285;52.128;21.060;2023-12-29T12:33:23;99609.37;;;8.52;100.00
43683;BME280;29285;52.128;21.060;2023-12-29T12:38:27;99606.93;;;8.53;100.00
43683;BME280;29285;52.128;21.060;2023-12-29T12:43:33;99599.11;;;8.55;100.00
43683;BME280;29285;52.128;21.060;2023-12-29T12:48:45;99603.70;;;8.60;100.00
43683;BME280;29285;52.128;21.060;2023-12-29T12:53:48;99605.89;;;8.63;100.00
43683;BME280;29285;52.128;21.060;2023-12-29T12:58:50;99593.58;;;8.65;100.00
43683;BME280;29285;52.128;21.060;2023-12-29T13:03:52;99598.91;;;8.67;100.00
43683;BME280;29285;52.128;21.060;2023-12-29T13:08:55;99598.82;;;8.70;100.00
43683;BME280;29285;52.128;21.060;2023-12-29T13:13:56;99603.56;;;8.76;100.00
43683;BME280;29285;52.128;21.060;2023-12-29T13:19:20;99605.41;;;8.78;100.00
43683;BME280;29285;52.128;21.060;2023-12-29T13:24:23;99609.47;;;8.83;100.00
43683;BME280;29285;52.128;21.060;2023-12-29T13:29:25;99609.14;;;8.81;100.00
43683;BME280;29285;52.128;21.060;2023-12-29T13:39:57;99602.68;;;8.84;100.00
43683;BME280;29285;52.128;21.060;2023-12-29T13:45:01;99597.73;;;8.82;100.00
43683;BME280;29285;52.128;21.060;2023-12-29T13:50:09;99603.26;;;8.82;100.00
43683;BME280;29285;52.128;21.060;2023-12-29T13:55:11;99608.96;;;8.82;100.00
43683;BME280;29285;52.128;21.060;2023-12-29T14:10:31;99611.47;;;8.78;100.00
43683;BME280;29285;52.128;21.060;2023-12-29T14:15:37;99614.27;;;8.76;100.00
43683;BME280;29285;52.128;21.060;2023-12-29T14:20:39;99621.73;;;8.75;100.00
43683;BME280;29285;52.128;21.060;2023-12-29T14:25:42;99625.41;;;8.73;100.00
43683;BME280;29285;52.128;21.060;2023-12-29T14:30:44;99626.86;;;8.69;100.00
43683;BME280;29285;52.128;21.060;2023-12-29T14:35:46;99630.88;;;8.68;100.00
43683;BME280;29285;52.128;21.060;2023-12-29T14:40:48;99638.70;;;8.65;100.00
43683;BME280;29285;52.128;21.060;2023-12-29T14:45:50;99638.21;;;8.64;100.00
43683;BME280;29285;52.128;21.060;2023-12-29T14:50:52;99641.16;;;8.63;100.00
43683;BME280;29285;52.128;21.060;2023-12-29T14:55:53;99634.27;;;8.62;100.00
43683;BME280;29285;52.128;21.060;2023-12-29T15:00:55;99624.63;;;8.59;100.00
43683;BME280;29285;52.128;21.060;2023-12-29T15:05:57;99619.84;;;8.56;100.00
43683;BME280;29285;52.128;21.060;2023-12-29T15:11:03;99626.66;;;8.51;100.00
43683;BME280;29285;52.128;21.060;2023-12-29T15:16:06;99639.34;;;8.47;100.00
43683;BME280;29285;52.128;21.060;2023-12-29T15:21:08;99653.54;;;8.45;100.00
43683;BME280;29285;52.128;21.060;2023-12-29T15:26:10;99643.17;;;8.45;100.00
43683;BME280;29285;52.128;21.060;2023-12-29T15:31:15;99625.41;;;8.43;100.00
43683;BME280;29285;52.128;21.060;2023-12-29T15:36:18;99630.86;;;8.38;100.00
43683;BME280;29285;52.128;21.060;2023-12-29T15:41:25;99622.85;;;8.32;100.00
43683;BME280;29285;52.128;21.060;2023-12-29T15:46:27;99623.66;;;8.26;100.00
43683;BME280;29285;52.128;21.060;2023-12-29T15:51:29;99620.71;;;8.16;100.00
43683;BME280;29285;52.128;21.060;2023-12-29T15:56:32;99616.19;;;8.07;100.00
43683;BME280;29285;52.128;21.060;2023-12-29T16:01:33;99615.27;;;8.01;100.00
43683;BME280;29285;52.128;21.060;2023-12-29T16:06:37;99610.52;;;7.96;100.00
43683;BME280;29285;52.128;21.060;2023-12-29T16:11:40;99613.20;;;7.91;100.00
43683;BME280;29285;52.128;21.060;2023-12-29T16:16:41;99598.46;;;7.83;100.00
43683;BME280;29285;52.128;21.060;2023-12-29T16:21:43;99601.83;;;7.77;100.00
43683;BME280;29285;52.128;21.060;2023-12-29T16:26:46;99605.55;;;7.73;100.00
43683;BME280;29285;52.128;21.060;2023-12-29T16:31:47;99615.93;;;7.70;100.00
43683;BME280;29285;52.128;21.060;2023-12-29T16:36:56;99617.88;;;7.68;100.00
43683;BME280;29285;52.128;21.060;2023-12-29T16:41:58;99626.20;;;7.64;100.00
43683;BME280;29285;52.128;21.060;2023-12-29T16:47:00;99622.27;;;7.62;100.00
43683;BME280;29285;52.128;21.060;2023-12-29T16:52:02;99617.61;;;7.62;100.00
43683;BME280;29285;52.128;21.060;2023-12-29T16:57:04;99614.16;;;7.62;100.00
43683;BME280;29285;52.128;21.060;2023-12-29T17:02:06;99616.41;;;7.61;100.00
43683;BME280;29285;52.128;21.060;2023-12-29T17:07:08;99620.09;;;7.59;100.00
43683;BME280;29285;52.128;21.060;2023-12-29T17:12:11;99620.80;;;7.56;100.00
43683;BME280;29285;52.128;21.060;2023-12-29T17:17:12;99619.63;;;7.54;100.00
43683;BME280;29285;52.128;21.060;2023-12-29T17:22:14;99621.70;;;7.54;100.00
43683;BME280;29285;52.128;21.060;2023-12-29T17:27:18;99619.14;;;7.53;100.00
43683;BME280;29285;52.128;21.060;2023-12-29T17:32:19;99616.04;;;7.52;100.00
43683;BME280;29285;52.128;21.060;2023-12-29T17:37:21;99624.33;;;7.51;100.00
43683;BME280;29285;52.128;21.060;2023-12-29T17:42:23;99624.19;;;7.49;100.00
43683;BME280;29285;52.128;21.060;2023-12-29T17:47:25;99625.61;;;7.47;100.00
43683;BME280;29285;52.128;21.060;2023-12-29T17:52:29;99614.60;;;7.44;100.00
43683;BME280;29285;52.128;21.060;2023-12-29T17:57:31;99607.73;;;7.41;100.00
43683;BME280;29285;52.128;21.060;2023-12-29T18:02:33;99613.11;;;7.39;100.00
43683;BME280;29285;52.128;21.060;2023-12-29T18:07:35;99619.69;;;7.38;100.00
43683;BME280;29285;52.128;21.060;2023-12-29T18:12:37;99629.55;;;7.36;100.00
43683;BME280;29285;52.128;21.060;2023-12-29T18:17:39;99626.81;;;7.35;100.00
43683;BME280;29285;52.128;21.060;2023-12-29T18:22:42;99618.02;;;7.34;100.00
43683;BME280;29285;52.128;21.060;2023-12-29T18:27:44;99609.91;;;7.34;100.00
43683;BME280;29285;52.128;21.060;2023-12-29T18:32:46;99617.98;;;7.35;100.00
43683;BME280;29285;52.128;21.060;2023-12-29T18:37:47;99620.24;;;7.35;100.00
43683;BME280;29285;52.128;21.060;2023-12-29T18:42:49;99614.88;;;7.37;100.00
43683;BME280;29285;52.128;21.060;2023-12-29T18:47:50;99620.71;;;7.39;100.00
43683;BME280;29285;52.128;21.060;2023-12-29T18:52:53;99617.23;;;7.41;100.00
43683;BME280;29285;52.128;21.060;2023-12-29T18:57:55;99618.93;;;7.43;100.00
43683;BME280;29285;52.128;21.060;2023-12-29T19:02:57;99621.65;;;7.46;100.00
43683;BME280;29285;52.128;21.060;2023-12-29T19:07:59;99627.44;;;7.50;100.00
43683;BME280;29285;52.128;21.060;2023-12-29T19:13:01;99628.96;;;7.52;100.00
43683;BME280;29285;52.128;21.060;2023-12-29T19:18:03;99632.55;;;7.55;100.00
43683;BME280;29285;52.128;21.060;2023-12-29T19:23:08;99626.63;;;7.60;100.00
43683;BME280;29285;52.128;21.060;2023-12-29T19:28:10;99607.94;;;7.62;100.00
43683;BME280;29285;52.128;21.060;2023-12-29T19:33:12;99601.42;;;7.59;100.00
43683;BME280;29285;52.128;21.060;2023-12-29T19:38:14;99590.95;;;7.55;100.00
43683;BME280;29285;52.128;21.060;2023-12-29T19:43:16;99587.75;;;7.51;100.00
43683;BME280;29285;52.128;21.060;2023-12-29T19:48:17;99576.43;;;7.46;100.00
43683;BME280;29285;52.128;21.060;2023-12-29T19:53:19;99581.85;;;7.41;100.00
43683;BME280;29285;52.128;21.060;2023-12-29T19:58:21;99580.75;;;7.34;100.00
43683;BME280;29285;52.128;21.060;2023-12-29T20:03:23;99583.75;;;7.29;100.00
43683;BME280;29285;52.128;21.060;2023-12-29T20:08:25;99579.64;;;7.26;100.00
43683;BME280;29285;52.128;21.060;2023-12-29T20:13:27;99578.46;;;7.25;100.00
43683;BME280;29285;52.128;21.060;2023-12-29T20:18:29;99590.19;;;7.25;100.00
43683;BME280;29285;52.128;21.060;2023-12-29T20:23:31;99597.10;;;7.24;100.00
43683;BME280;29285;52.128;21.060;2023-12-29T20:28:33;99597.09;;;7.24;100.00
43683;BME280;29285;52.128;21.060;2023-12-29T20:33:35;99598.79;;;7.27;100.00
43683;BME280;29285;52.128;21.060;2023-12-29T20:38:37;99600.98;;;7.31;100.00
43683;BME280;29285;52.128;21.060;2023-12-29T20:43:38;99603.37;;;7.32;100.00
43683;BME280;29285;52.128;21.060;2023-12-29T20:48:41;99597.50;;;7.33;100.00
43683;BME280;29285;52.128;21.060;2023-12-29T20:53:42;99604.05;;;7.33;100.00
43683;BME280;29285;52.128;21.060;2023-12-29T20:58:44;99601.65;;;7.32;100.00
43683;BME280;29285;52.128;21.060;2023-12-29T21:03:46;99597.33;;;7.33;100.00
43683;BME280;29285;52.128;21.060;2023-12-29T21:08:48;99596.99;;;7.32;100.00
43683;BME280;29285;52.128;21.060;2023-12-29T21:13:51;99598.54;;;7.33;100.00
43683;BME280;29285;52.128;21.060;2023-12-29T21:18:52;99602.14;;;7.34;100.00
43683;BME280;29285;52.128;21.060;2023-12-29T21:23:54;99600.75;;;7.35;100.00
43683;BME280;29285;52.128;21.060;2023-12-29T21:28:57;99598.31;;;7.36;100.00
43683;BME280;29285;52.128;21.060;2023-12-29T21:34:01;99597.77;;;7.39;100.00
43683;BME280;29285;52.128;21.060;2023-12-29T21:39:04;99598.28;;;7.39;100.00
43683;BME280;29285;52.128;21.060;2023-12-29T21:44:07;99597.77;;;7.38;100.00
43683;BME280;29285;52.128;21.060;2023-12-29T21:49:09;99592.97;;;7.36;100.00
43683;BME280;29285;52.128;21.060;2023-12-29T21:54:11;99599.90;;;7.34;100.00
43683;BME280;29285;52.128;21.060;2023-12-29T21:59:13;99603.05;;;7.31;100.00
43683;BME280;29285;52.128;21.060;2023-12-29T22:04:15;99599.63;;;7.29;100.00
43683;BME280;29285;52.128;21.060;2023-12-29T22:09:16;99595.88;;;7.26;100.00
43683;BME280;29285;52.128;21.060;2023-12-29T22:14:18;99594.52;;;7.24;100.00
43683;BME280;29285;52.128;21.060;2023-12-29T22:19:20;99591.96;;;7.21;100.00
43683;BME280;29285;52.128;21.060;2023-12-29T22:24:22;99588.55;;;7.18;100.00
43683;BME280;29285;52.128;21.060;2023-12-29T22:29:24;99583.27;;;7.15;100.00
43683;BME280;29285;52.128;21.060;2023-12-29T22:34:26;99578.82;;;7.12;100.00
43683;BME280;29285;52.128;21.060;2023-12-29T22:39:28;99566.80;;;7.07;100.00
43683;BME280;29285;52.128;21.060;2023-12-29T22:44:30;99557.36;;;7.04;100.00
43683;BME280;29285;52.128;21.060;2023-12-29T22:49:31;99560.36;;;6.99;100.00
43683;BME280;29285;52.128;21.060;2023-12-29T22:54:33;99555.94;;;6.95;100.00
43683;BME280;29285;52.128;21.060;2023-12-29T22:59:35;99550.42;;;6.94;100.00
43683;BME280;29285;52.128;21.060;2023-12-29T23:04:39;99550.14;;;6.89;100.00
43683;BME280;29285;52.128;21.060;2023-12-29T23:09:41;99551.40;;;6.86;100.00
43683;BME280;29285;52.128;21.060;2023-12-29T23:14:42;99557.60;;;6.86;100.00
43683;BME280;29285;52.128;21.060;2023-12-29T23:19:44;99550.38;;;6.85;100.00
43683;BME280;29285;52.128;21.060;2023-12-29T23:24:46;99551.41;;;6.84;100.00
43683;BME280;29285;52.128;21.060;2023-12-29T23:29:49;99550.03;;;6.84;100.00
43683;BME280;29285;52.128;21.060;2023-12-29T23:34:50;99551.23;;;6.85;100.00
43683;BME280;29285;52.128;21.060;2023-12-29T23:39:52;99546.05;;;6.87;100.00
43683;BME280;29285;52.128;21.060;2023-12-29T23:44:54;99543.80;;;6.87;100.00
43683;BME280;29285;52.128;21.060;2023-12-29T23:49:56;99542.43;;;6.86;100.00
43683;BME280;29285;52.128;21.060;2023-12-29T23:54:58;99545.21;;;6.83;100.00
